createdAt,value
2022-10-29T00:00:13.024Z,303.74
2022-10-29T00:01:13.112Z,304.59
2022-10-29T00:02:12.996Z,303.71
2022-10-29T00:03:13.074Z,304.26
2022-10-29T00:04:12.979Z,303.63
2022-10-29T00:05:12.972Z,303.96
2022-10-29T00:06:12.951Z,304.80
2022-10-29T00:07:12.961Z,304.20
2022-10-29T00:08:12.975Z,304.02
2022-10-29T00:09:12.935Z,303.77
2022-10-29T00:10:12.917Z,304.36
2022-10-29T00:11:12.912Z,304.40
2022-10-29T00:12:12.949Z,304.10
2022-10-29T00:13:12.906Z,303.99
2022-10-29T00:14:12.873Z,303.88
2022-10-29T00:15:12.863Z,304.06
2022-10-29T00:16:12.840Z,303.96
2022-10-29T00:17:12.851Z,304.11
2022-10-29T00:18:12.832Z,303.85
2022-10-29T00:19:12.801Z,303.85
2022-10-29T00:20:12.821Z,303.88
2022-10-29T00:21:12.804Z,304.30
2022-10-29T00:22:12.775Z,304.95
2022-10-29T00:23:12.767Z,304.00
2022-10-29T00:24:12.768Z,303.97
2022-10-29T00:25:12.740Z,303.73
2022-10-29T00:26:12.731Z,304.01
2022-10-29T00:27:12.741Z,303.47
2022-10-29T00:28:12.715Z,303.75
2022-10-29T00:29:12.705Z,303.57
2022-10-29T00:30:12.679Z,304.76
2022-10-29T00:31:12.713Z,304.24
2022-10-29T00:32:12.741Z,304.02
2022-10-29T00:33:12.683Z,303.85
2022-10-29T00:34:12.650Z,303.34
2022-10-29T00:35:12.633Z,303.85
2022-10-29T00:36:12.624Z,305.12
2022-10-29T00:37:12.614Z,304.91
2022-10-29T00:38:12.599Z,304.10
2022-10-29T00:39:12.585Z,304.06
2022-10-29T00:40:12.565Z,304.06
2022-10-29T00:41:12.572Z,304.23
2022-10-29T00:42:12.564Z,303.92
2022-10-29T00:43:12.537Z,304.12
2022-10-29T00:44:12.531Z,303.69
2022-10-29T00:45:12.523Z,303.86
2022-10-29T00:46:12.504Z,304.33
2022-10-29T00:47:12.531Z,304.11
2022-10-29T00:48:12.482Z,304.49
2022-10-29T00:49:12.473Z,304.12
2022-10-29T00:50:12.459Z,304.02
2022-10-29T00:51:12.450Z,303.81
2022-10-29T00:52:12.439Z,303.93
2022-10-29T00:53:12.464Z,304.40
2022-10-29T00:54:12.419Z,303.70
2022-10-29T00:55:12.402Z,303.86
2022-10-29T00:56:12.397Z,304.04
2022-10-29T00:57:12.380Z,304.17
2022-10-29T00:58:12.395Z,304.29
2022-10-29T00:59:12.362Z,304.50
2022-10-29T01:00:12.356Z,303.93
2022-10-29T01:01:12.435Z,304.55
2022-10-29T01:02:12.456Z,303.57
2022-10-29T01:03:12.472Z,304.13
2022-10-29T01:04:12.316Z,303.74
2022-10-29T01:05:12.290Z,303.98
2022-10-29T01:06:12.276Z,303.25
2022-10-29T01:07:12.276Z,304.85
2022-10-29T01:08:12.749Z,304.87
2022-10-29T01:09:13.215Z,303.93
2022-10-29T01:10:12.237Z,304.49
2022-10-29T01:11:12.227Z,304.16
2022-10-29T01:12:12.232Z,303.81
2022-10-29T01:13:12.385Z,304.06
2022-10-29T01:14:12.205Z,304.24
2022-10-29T01:15:12.184Z,304.08
2022-10-29T01:16:12.176Z,304.12
2022-10-29T01:17:12.163Z,303.99
2022-10-29T01:18:12.152Z,303.98
2022-10-29T01:19:12.817Z,304.11
2022-10-29T01:20:12.125Z,303.77
2022-10-29T01:21:12.117Z,304.20
2022-10-29T01:22:12.099Z,304.18
2022-10-29T01:23:12.094Z,304.51
2022-10-29T01:24:12.094Z,303.85
2022-10-29T01:25:12.077Z,304.28
2022-10-29T01:26:12.094Z,304.34
2022-10-29T01:27:12.054Z,304.06
2022-10-29T01:28:12.038Z,304.46
2022-10-29T01:29:12.029Z,304.00
2022-10-29T01:30:12.045Z,303.95
2022-10-29T01:31:12.019Z,304.30
2022-10-29T01:32:11.993Z,304.02
2022-10-29T01:33:11.998Z,303.16
2022-10-29T01:34:11.967Z,303.70
2022-10-29T01:35:11.954Z,303.95
2022-10-29T01:36:11.963Z,304.08
2022-10-29T01:37:11.947Z,304.48
2022-10-29T01:38:11.929Z,305.18
2022-10-29T01:39:11.909Z,303.97
2022-10-29T01:40:11.909Z,304.28
2022-10-29T01:41:11.897Z,304.11
2022-10-29T01:42:11.899Z,304.28
2022-10-29T01:43:11.929Z,304.50
2022-10-29T01:44:11.859Z,304.56
2022-10-29T01:45:11.849Z,304.12
2022-10-29T01:46:11.835Z,304.25
2022-10-29T01:47:11.820Z,303.64
2022-10-29T01:48:11.815Z,303.87
2022-10-29T01:49:11.804Z,303.88
2022-10-29T01:50:11.795Z,303.58
2022-10-29T01:51:11.780Z,303.53
2022-10-29T01:52:11.779Z,304.65
2022-10-29T01:53:11.769Z,305.57
2022-10-29T01:54:11.758Z,304.00
2022-10-29T01:55:11.730Z,304.01
2022-10-29T01:56:11.713Z,304.08
2022-10-29T01:57:11.710Z,303.86
2022-10-29T01:58:11.810Z,303.93
2022-10-29T01:59:18.370Z,303.74
2022-10-29T02:00:12.681Z,303.70
2022-10-29T02:01:11.806Z,303.92
2022-10-29T02:02:11.671Z,303.65
2022-10-29T02:03:11.654Z,303.83
2022-10-29T02:04:11.633Z,303.42
2022-10-29T02:05:11.618Z,303.12
2022-10-29T02:06:11.610Z,304.58
2022-10-29T02:07:11.602Z,304.88
2022-10-29T02:08:11.621Z,304.23
2022-10-29T02:09:11.580Z,304.33
2022-10-29T02:10:11.564Z,304.80
2022-10-29T02:11:11.565Z,304.07
2022-10-29T02:12:11.540Z,303.68
2022-10-29T02:13:11.615Z,303.74
2022-10-29T02:14:11.532Z,303.74
2022-10-29T02:15:11.506Z,304.06
2022-10-29T02:16:11.493Z,303.53
2022-10-29T02:17:11.492Z,303.84
2022-10-29T02:18:11.479Z,303.41
2022-10-29T02:19:11.486Z,303.50
2022-10-29T02:20:11.510Z,303.57
2022-10-29T02:21:11.460Z,304.58
2022-10-29T02:22:11.427Z,304.54
2022-10-29T02:23:11.426Z,304.17
2022-10-29T02:24:11.424Z,303.64
2022-10-29T02:25:11.471Z,303.92
2022-10-29T02:26:11.386Z,304.49
2022-10-29T02:27:11.381Z,304.49
2022-10-29T02:28:11.383Z,304.37
2022-10-29T02:29:11.350Z,304.13
2022-10-29T02:30:11.354Z,304.09
2022-10-29T02:31:11.326Z,304.79
2022-10-29T02:32:11.310Z,304.35
2022-10-29T02:33:11.323Z,303.92
2022-10-29T02:34:11.305Z,303.70
2022-10-29T02:35:11.294Z,305.72
2022-10-29T02:36:11.297Z,305.49
2022-10-29T02:37:11.280Z,304.24
2022-10-29T02:38:11.290Z,303.81
2022-10-29T02:39:11.266Z,304.09
2022-10-29T02:40:11.224Z,304.00
2022-10-29T02:41:11.228Z,304.35
2022-10-29T02:42:11.200Z,303.89
2022-10-29T02:43:11.261Z,304.18
2022-10-29T02:44:11.188Z,303.91
2022-10-29T02:45:11.172Z,304.04
2022-10-29T02:46:11.160Z,303.46
2022-10-29T02:47:11.158Z,303.01
2022-10-29T02:48:11.136Z,303.97
2022-10-29T02:49:11.128Z,303.14
2022-10-29T02:50:11.115Z,304.91
2022-10-29T02:51:11.109Z,305.01
2022-10-29T02:52:11.113Z,304.27
2022-10-29T02:53:11.101Z,304.35
2022-10-29T02:54:11.073Z,304.65
2022-10-29T02:55:11.066Z,303.91
2022-10-29T02:56:11.044Z,303.83
2022-10-29T02:57:11.031Z,303.70
2022-10-29T02:58:11.078Z,303.77
2022-10-29T02:59:12.010Z,303.84
2022-10-29T03:00:10.999Z,304.41
2022-10-29T03:01:11.039Z,304.17
2022-10-29T03:02:11.103Z,304.01
2022-10-29T03:03:10.986Z,303.62
2022-10-29T03:04:10.967Z,304.12
2022-10-29T03:05:10.948Z,304.67
2022-10-29T03:06:10.933Z,305.01
2022-10-29T03:07:10.924Z,303.85
2022-10-29T03:08:10.911Z,304.11
2022-10-29T03:09:10.918Z,304.20
2022-10-29T03:10:10.895Z,303.76
2022-10-29T03:11:10.880Z,304.00
2022-10-29T03:12:10.864Z,304.12
2022-10-29T03:13:10.854Z,302.16
2022-10-29T03:14:10.854Z,303.99
2022-10-29T03:15:10.849Z,304.26
2022-10-29T03:16:10.821Z,303.28
2022-10-29T03:17:10.819Z,303.67
2022-10-29T03:18:10.801Z,304.01
2022-10-29T03:19:10.794Z,303.60
2022-10-29T03:20:10.801Z,303.90
2022-10-29T03:21:10.771Z,305.40
2022-10-29T03:22:10.753Z,304.21
2022-10-29T03:23:10.746Z,304.04
2022-10-29T03:24:10.758Z,303.98
2022-10-29T03:25:10.735Z,304.33
2022-10-29T03:26:10.740Z,304.34
2022-10-29T03:27:10.707Z,304.89
2022-10-29T03:28:10.691Z,303.93
2022-10-29T03:29:10.684Z,303.92
2022-10-29T03:30:10.668Z,303.75
2022-10-29T03:31:10.672Z,303.78
2022-10-29T03:32:10.687Z,304.35
2022-10-29T03:33:10.642Z,304.01
2022-10-29T03:34:10.623Z,304.68
2022-10-29T03:35:10.611Z,304.95
2022-10-29T03:36:10.760Z,303.95
2022-10-29T03:37:10.600Z,303.73
2022-10-29T03:38:10.578Z,303.87
2022-10-29T03:39:10.564Z,304.33
2022-10-29T03:40:10.556Z,303.96
2022-10-29T03:41:10.829Z,304.19
2022-10-29T03:42:10.524Z,304.34
2022-10-29T03:43:10.541Z,303.98
2022-10-29T03:44:10.513Z,304.14
2022-10-29T03:45:10.514Z,303.95
2022-10-29T03:46:10.489Z,304.20
2022-10-29T03:47:10.483Z,303.29
2022-10-29T03:48:10.472Z,303.41
2022-10-29T03:49:11.223Z,304.48
2022-10-29T03:50:10.451Z,304.86
2022-10-29T03:51:10.433Z,304.34
2022-10-29T03:52:10.418Z,303.91
2022-10-29T03:53:10.418Z,304.25
2022-10-29T03:54:10.404Z,303.82
2022-10-29T03:55:10.417Z,303.69
2022-10-29T03:56:10.369Z,304.24
2022-10-29T03:57:10.370Z,303.99
2022-10-29T03:58:10.346Z,304.22
2022-10-29T04:00:10.336Z,303.94
2022-10-29T04:01:10.453Z,304.05
2022-10-29T04:02:10.513Z,303.51
2022-10-29T04:03:10.311Z,303.30
2022-10-29T04:04:10.302Z,304.48
2022-10-29T04:05:10.311Z,305.18
2022-10-29T04:06:10.277Z,304.16
2022-10-29T04:07:10.255Z,303.94
2022-10-29T04:08:10.264Z,303.55
2022-10-29T04:09:10.245Z,304.15
2022-10-29T04:10:10.227Z,303.80
2022-10-29T04:11:10.218Z,303.54
2022-10-29T04:12:10.200Z,304.45
2022-10-29T04:13:10.228Z,304.05
2022-10-29T04:14:10.200Z,304.08
2022-10-29T04:15:10.178Z,303.58
2022-10-29T04:16:10.184Z,304.08
2022-10-29T04:17:10.791Z,303.06
2022-10-29T04:18:10.170Z,304.35
2022-10-29T04:19:10.139Z,303.61
2022-10-29T04:20:21.069Z,303.88
2022-10-29T04:24:18.805Z,303.92
2022-10-29T04:28:42.437Z,303.86
2022-10-29T04:29:11.017Z,304.24
2022-10-29T04:30:10.094Z,304.22
2022-10-29T04:31:09.989Z,303.30
2022-10-29T04:32:09.976Z,304.50
2022-10-29T04:33:09.968Z,305.02
2022-10-29T04:34:09.956Z,303.98
2022-10-29T04:35:09.954Z,304.31
2022-10-29T04:36:09.964Z,304.07
2022-10-29T04:37:09.929Z,303.88
2022-10-29T04:38:09.911Z,303.89
2022-10-29T04:39:09.914Z,304.19
2022-10-29T04:40:09.895Z,304.18
2022-10-29T04:41:09.905Z,304.28
2022-10-29T04:42:09.993Z,303.96
2022-10-29T04:43:09.855Z,304.20
2022-10-29T04:44:09.846Z,303.67
2022-10-29T04:45:09.834Z,304.03
2022-10-29T04:46:09.823Z,303.69
2022-10-29T04:47:09.832Z,304.37
2022-10-29T04:48:09.821Z,305.25
2022-10-29T04:49:09.882Z,304.02
2022-10-29T04:50:09.783Z,304.04
2022-10-29T04:51:09.778Z,303.96
2022-10-29T04:52:10.740Z,303.65
2022-10-29T04:53:09.745Z,303.82
2022-10-29T04:54:09.742Z,304.18
2022-10-29T04:55:09.720Z,304.16
2022-10-29T04:56:09.731Z,303.62
2022-10-29T04:57:09.698Z,303.85
2022-10-29T04:58:09.692Z,303.81
2022-10-29T04:59:09.672Z,304.20
2022-10-29T05:00:11.021Z,304.37
2022-10-29T05:01:09.811Z,304.23
2022-10-29T05:02:09.643Z,304.76
2022-10-29T05:03:09.635Z,304.43
2022-10-29T05:04:09.618Z,304.18
2022-10-29T05:05:09.613Z,303.70
2022-10-29T05:06:09.663Z,304.08
2022-10-29T05:07:09.606Z,303.92
2022-10-29T05:08:09.583Z,304.02
2022-10-29T05:09:09.568Z,304.27
2022-10-29T05:10:09.574Z,304.46
2022-10-29T05:11:09.569Z,303.85
2022-10-29T05:12:09.533Z,303.97
2022-10-29T05:13:09.553Z,304.09
2022-10-29T05:14:09.513Z,303.69
2022-10-29T05:15:09.507Z,303.82
2022-10-29T05:16:09.523Z,303.99
2022-10-29T05:17:09.479Z,304.76
2022-10-29T05:18:09.483Z,304.97
2022-10-29T05:19:09.451Z,303.81
2022-10-29T05:20:09.441Z,303.70
2022-10-29T05:21:09.429Z,304.15
2022-10-29T05:22:09.426Z,304.33
2022-10-29T05:23:09.408Z,303.70
2022-10-29T05:24:09.398Z,303.53
2022-10-29T05:25:09.389Z,304.02
2022-10-29T05:26:09.385Z,303.34
2022-10-29T05:27:09.383Z,303.86
2022-10-29T05:28:09.359Z,303.88
2022-10-29T05:29:09.345Z,303.82
2022-10-29T05:30:09.339Z,303.96
2022-10-29T05:31:09.321Z,304.65
2022-10-29T05:32:09.327Z,304.29
2022-10-29T05:33:09.320Z,304.20
2022-10-29T05:34:09.294Z,303.58
2022-10-29T05:35:09.272Z,303.76
2022-10-29T05:36:09.264Z,304.13
2022-10-29T05:37:09.250Z,304.11
2022-10-29T05:38:09.256Z,303.35
2022-10-29T05:39:09.232Z,303.92
2022-10-29T05:40:09.244Z,304.05
2022-10-29T05:41:09.223Z,304.25
2022-10-29T05:42:09.198Z,303.58
2022-10-29T05:43:09.231Z,303.80
2022-10-29T05:44:09.196Z,303.65
2022-10-29T05:45:09.169Z,304.11
2022-10-29T05:46:09.155Z,304.01
2022-10-29T05:47:09.137Z,303.12
2022-10-29T05:48:09.173Z,303.39
2022-10-29T05:49:09.136Z,303.72
2022-10-29T05:50:09.109Z,303.90
2022-10-29T05:51:09.103Z,304.05
2022-10-29T05:52:09.116Z,303.84
2022-10-29T05:53:09.084Z,303.91
2022-10-29T05:54:09.066Z,303.89
2022-10-29T05:55:09.064Z,303.97
2022-10-29T05:56:09.043Z,303.45
2022-10-29T05:57:09.040Z,303.67
2022-10-29T05:58:09.016Z,303.66
2022-10-29T05:59:09.011Z,304.16
2022-10-29T06:00:09.004Z,304.21
2022-10-29T06:01:09.004Z,304.28
2022-10-29T06:02:09.158Z,303.04
2022-10-29T06:03:09.028Z,303.94
2022-10-29T06:04:08.959Z,303.67
2022-10-29T06:05:08.977Z,303.41
2022-10-29T06:06:09.122Z,303.58
2022-10-29T06:07:08.918Z,303.58
2022-10-29T06:08:08.930Z,303.75
2022-10-29T06:09:08.898Z,303.78
2022-10-29T06:10:08.889Z,303.44
2022-10-29T06:11:08.881Z,303.40
2022-10-29T06:12:08.881Z,303.72
2022-10-29T06:13:08.848Z,303.36
2022-10-29T06:14:08.840Z,303.02
2022-10-29T06:15:08.833Z,304.65
2022-10-29T06:16:08.829Z,304.82
2022-10-29T06:17:08.806Z,303.32
2022-10-29T06:18:08.814Z,303.81
2022-10-29T06:19:08.780Z,303.74
2022-10-29T06:20:08.783Z,304.53
2022-10-29T06:21:08.778Z,303.64
2022-10-29T06:22:08.756Z,304.12
2022-10-29T06:23:08.746Z,304.43
2022-10-29T06:24:08.735Z,303.25
2022-10-29T06:25:08.724Z,303.87
2022-10-29T06:26:08.729Z,303.96
2022-10-29T06:27:08.705Z,303.73
2022-10-29T06:28:08.692Z,303.55
2022-10-29T06:29:08.683Z,302.79
2022-10-29T06:30:08.670Z,304.95
2022-10-29T06:31:08.667Z,305.16
2022-10-29T06:32:08.640Z,303.90
2022-10-29T06:33:08.629Z,304.18
2022-10-29T06:34:08.623Z,304.34
2022-10-29T06:35:08.635Z,304.35
2022-10-29T06:36:08.613Z,304.11
2022-10-29T06:37:08.591Z,304.23
2022-10-29T06:38:11.924Z,304.31
2022-10-29T06:39:08.564Z,304.25
2022-10-29T06:40:08.556Z,304.02
2022-10-29T06:41:08.544Z,304.40
2022-10-29T06:42:08.549Z,304.11
2022-10-29T06:43:08.526Z,304.55
2022-10-29T06:44:08.517Z,303.95
2022-10-29T06:45:08.496Z,304.67
2022-10-29T06:46:08.505Z,304.90
2022-10-29T06:47:08.473Z,303.68
2022-10-29T06:48:08.473Z,304.52
2022-10-29T06:49:08.446Z,304.38
2022-10-29T06:50:08.450Z,304.86
2022-10-29T06:51:08.477Z,304.77
2022-10-29T06:52:08.425Z,304.68
2022-10-29T06:53:08.408Z,304.37
2022-10-29T06:54:08.407Z,304.78
2022-10-29T06:55:08.381Z,305.04
2022-10-29T06:56:08.370Z,304.99
2022-10-29T06:57:08.370Z,304.40
2022-10-29T06:58:08.366Z,304.76
2022-10-29T06:59:08.360Z,304.26
2022-10-29T07:00:09.287Z,305.66
2022-10-29T07:01:08.342Z,306.18
2022-10-29T07:02:08.353Z,304.80
2022-10-29T07:03:08.298Z,304.88
2022-10-29T07:04:08.304Z,304.67
2022-10-29T07:05:08.277Z,304.98
2022-10-29T07:06:08.282Z,304.42
2022-10-29T07:07:08.255Z,304.26
2022-10-29T07:08:08.258Z,304.81
2022-10-29T07:09:08.231Z,304.95
2022-10-29T07:10:08.241Z,304.81
2022-10-29T07:11:08.206Z,304.92
2022-10-29T07:12:08.198Z,304.30
2022-10-29T07:13:08.183Z,304.63
2022-10-29T07:14:08.171Z,304.34
2022-10-29T07:15:08.164Z,305.70
2022-10-29T07:16:08.162Z,304.15
2022-10-29T07:17:08.139Z,304.16
2022-10-29T07:18:08.136Z,303.94
2022-10-29T07:19:08.125Z,304.29
2022-10-29T07:20:08.113Z,304.70
2022-10-29T07:21:08.110Z,304.55
2022-10-29T07:22:08.087Z,304.52
2022-10-29T07:23:08.080Z,304.18
2022-10-29T07:24:08.072Z,304.53
2022-10-29T07:25:08.051Z,304.25
2022-10-29T07:26:08.052Z,304.70
2022-10-29T07:27:08.072Z,304.08
2022-10-29T07:28:08.901Z,303.62
2022-10-29T07:29:08.007Z,304.92
2022-10-29T07:30:07.999Z,305.24
2022-10-29T07:31:07.997Z,304.10
2022-10-29T07:32:07.979Z,304.12
2022-10-29T07:33:07.965Z,304.15
2022-10-29T07:34:07.962Z,304.15
2022-10-29T07:35:07.936Z,303.88
2022-10-29T07:36:07.930Z,304.40
2022-10-29T07:37:08.797Z,304.05
2022-10-29T07:38:10.725Z,304.51
2022-10-29T07:39:07.895Z,303.65
2022-10-29T07:40:07.885Z,304.23
2022-10-29T07:41:07.929Z,304.18
2022-10-29T07:42:07.864Z,303.83
2022-10-29T07:43:07.881Z,303.85
2022-10-29T07:44:07.846Z,303.97
2022-10-29T07:45:07.845Z,305.38
2022-10-29T07:46:07.825Z,304.47
2022-10-29T07:47:07.807Z,303.41
2022-10-29T07:48:07.819Z,303.47
2022-10-29T07:49:07.793Z,304.05
2022-10-29T07:50:07.774Z,305.75
2022-10-29T07:51:07.766Z,304.25
2022-10-29T07:52:07.754Z,303.92
2022-10-29T07:53:07.742Z,304.34
2022-10-29T07:54:10.875Z,303.86
2022-10-29T07:55:08.715Z,303.78
2022-10-29T07:56:07.712Z,303.30
2022-10-29T07:57:07.693Z,303.52
2022-10-29T07:58:07.688Z,303.76
2022-10-29T07:59:07.686Z,303.46
2022-10-29T08:00:07.666Z,305.10
2022-10-29T08:01:07.716Z,304.32
2022-10-29T08:02:07.671Z,304.09
2022-10-29T08:03:07.635Z,304.33
2022-10-29T08:04:07.637Z,303.73
2022-10-29T08:05:07.608Z,304.85
2022-10-29T08:06:07.608Z,303.85
2022-10-29T08:07:07.583Z,303.85
2022-10-29T08:08:07.597Z,303.68
2022-10-29T08:09:07.560Z,304.09
2022-10-29T08:10:07.562Z,303.99
2022-10-29T08:11:07.533Z,303.93
2022-10-29T08:12:07.536Z,303.45
2022-10-29T08:13:07.515Z,302.77
2022-10-29T08:14:07.507Z,303.64
2022-10-29T08:15:07.492Z,303.42
2022-10-29T08:16:07.504Z,304.02
2022-10-29T08:17:07.475Z,303.60
2022-10-29T08:18:07.466Z,300.27
2022-10-29T08:19:07.451Z,301.10
2022-10-29T08:20:07.466Z,300.19
2022-10-29T08:21:07.449Z,299.19
2022-10-29T08:22:07.434Z,300.32
2022-10-29T08:23:07.408Z,300.56
2022-10-29T08:24:07.403Z,300.59
2022-10-29T08:25:07.381Z,299.34
2022-10-29T08:26:07.397Z,299.99
2022-10-29T08:27:07.377Z,298.95
2022-10-29T08:28:07.389Z,299.87
2022-10-29T08:29:07.341Z,299.25
2022-10-29T08:30:07.336Z,299.66
2022-10-29T08:31:07.318Z,300.47
2022-10-29T08:32:07.340Z,300.58
2022-10-29T08:33:07.309Z,299.47
2022-10-29T08:34:11.099Z,300.73
2022-10-29T08:35:07.267Z,301.27
2022-10-29T08:36:07.270Z,302.34
2022-10-29T08:37:07.263Z,302.54
2022-10-29T08:38:07.241Z,304.16
2022-10-29T08:39:07.231Z,306.44
2022-10-29T08:40:07.221Z,305.71
2022-10-29T08:41:07.233Z,305.72
2022-10-29T08:42:07.200Z,307.15
2022-10-29T08:43:07.201Z,308.09
2022-10-29T08:44:07.185Z,308.17
2022-10-29T08:45:07.171Z,308.13
2022-10-29T08:46:07.160Z,307.67
2022-10-29T08:47:08.013Z,308.64
2022-10-29T08:48:07.146Z,309.12
2022-10-29T08:49:07.120Z,307.81
2022-10-29T08:50:07.109Z,308.05
2022-10-29T08:51:07.114Z,307.93
2022-10-29T08:52:07.089Z,308.79
2022-10-29T08:53:24.004Z,309.10
2022-10-29T08:54:29.998Z,308.73
2022-10-29T08:55:08.058Z,308.47
2022-10-29T08:56:07.051Z,309.82
2022-10-29T08:57:07.028Z,309.77
2022-10-29T08:58:07.033Z,308.17
2022-10-29T08:59:07.035Z,308.43
2022-10-29T09:01:07.040Z,308.17
2022-10-29T09:02:07.044Z,309.53
2022-10-29T09:03:06.964Z,310.37
2022-10-29T09:04:06.942Z,309.91
2022-10-29T09:05:06.958Z,309.15
2022-10-29T09:06:06.925Z,307.56
2022-10-29T09:07:06.917Z,308.75
2022-10-29T09:08:06.905Z,309.38
2022-10-29T09:09:06.888Z,309.34
2022-10-29T09:10:06.925Z,308.85
2022-10-29T09:11:06.878Z,309.41
2022-10-29T09:12:06.872Z,309.96
2022-10-29T09:13:06.907Z,310.00
2022-10-29T09:14:07.839Z,310.03
2022-10-29T09:15:06.830Z,310.50
2022-10-29T09:16:06.831Z,309.52
2022-10-29T09:17:08.288Z,309.98
2022-10-29T09:18:06.795Z,309.73
2022-10-29T09:19:06.774Z,309.85
2022-10-29T09:20:06.769Z,308.79
2022-10-29T09:21:06.766Z,309.17
2022-10-29T09:22:06.742Z,309.89
2022-10-29T09:23:06.735Z,309.32
2022-10-29T09:24:06.721Z,309.29
2022-10-29T09:25:06.715Z,309.12
2022-10-29T09:26:06.699Z,308.78
2022-10-29T09:27:09.756Z,309.07
2022-10-29T09:28:06.682Z,308.59
2022-10-29T09:29:06.668Z,309.87
2022-10-29T09:30:06.656Z,309.45
2022-10-29T09:31:06.639Z,309.38
2022-10-29T09:32:06.639Z,311.12
2022-10-29T09:33:06.615Z,310.74
2022-10-29T09:34:06.603Z,309.78
2022-10-29T09:35:06.702Z,310.02
2022-10-29T09:36:06.580Z,311.72
2022-10-29T09:37:06.590Z,309.85
2022-10-29T09:38:06.595Z,303.91
2022-10-29T09:39:06.583Z,304.02
2022-10-29T09:40:06.615Z,304.11
2022-10-29T09:41:06.583Z,304.34
2022-10-29T09:42:06.592Z,303.97
2022-10-29T09:43:06.524Z,303.68
2022-10-29T09:44:06.522Z,304.09
2022-10-29T09:45:06.539Z,303.95
2022-10-29T09:46:06.501Z,303.60
2022-10-29T09:47:09.642Z,304.40
2022-10-29T09:48:06.493Z,304.34
2022-10-29T09:50:08.751Z,302.97
2022-10-29T09:51:06.472Z,303.81
2022-10-29T09:52:06.420Z,303.03
2022-10-29T09:53:06.427Z,303.45
2022-10-29T09:54:06.469Z,303.11
2022-10-29T09:55:06.378Z,303.16
2022-10-29T09:56:06.356Z,303.18
2022-10-29T09:57:06.357Z,302.83
2022-10-29T09:58:06.342Z,303.07
2022-10-29T09:59:06.356Z,302.82
2022-10-29T10:00:06.329Z,303.01
2022-10-29T10:01:06.310Z,302.63
2022-10-29T10:02:06.454Z,303.63
2022-10-29T10:03:06.347Z,304.17
2022-10-29T10:04:06.279Z,303.20
2022-10-29T10:05:06.256Z,303.40
2022-10-29T10:06:06.263Z,302.29
2022-10-29T10:07:06.241Z,302.50
2022-10-29T10:08:06.228Z,302.62
2022-10-29T10:09:06.218Z,302.91
2022-10-29T10:10:06.222Z,302.88
2022-10-29T10:11:06.198Z,302.77
2022-10-29T10:12:06.195Z,302.96
2022-10-29T10:13:06.183Z,302.54
2022-10-29T10:14:06.167Z,302.20
2022-10-29T10:15:06.146Z,302.31
2022-10-29T10:16:06.205Z,302.73
2022-10-29T10:17:06.131Z,303.01
2022-10-29T10:18:06.119Z,303.14
2022-10-29T10:19:06.109Z,303.20
2022-10-29T10:20:06.096Z,303.12
2022-10-29T10:21:06.090Z,302.79
2022-10-29T10:22:06.102Z,302.94
2022-10-29T10:23:06.868Z,302.81
2022-10-29T10:24:06.060Z,302.43
2022-10-29T10:25:06.104Z,302.45
2022-10-29T10:26:06.065Z,302.30
2022-10-29T10:27:06.028Z,302.49
2022-10-29T10:28:06.025Z,302.47
2022-10-29T10:29:05.992Z,302.67
2022-10-29T10:30:05.983Z,302.56
2022-10-29T10:31:05.982Z,303.26
2022-10-29T10:32:05.970Z,303.83
2022-10-29T10:33:05.952Z,304.10
2022-10-29T10:34:05.950Z,302.75
2022-10-29T10:35:05.936Z,303.26
2022-10-29T10:36:05.937Z,303.57
2022-10-29T10:37:05.964Z,303.36
2022-10-29T10:38:05.897Z,303.01
2022-10-29T10:39:05.886Z,302.85
2022-10-29T10:40:05.893Z,303.81
2022-10-29T10:41:05.862Z,303.05
2022-10-29T10:42:05.867Z,303.52
2022-10-29T10:43:08.288Z,303.55
2022-10-29T10:44:05.851Z,303.09
2022-10-29T10:45:05.821Z,302.78
2022-10-29T10:46:05.802Z,303.16
2022-10-29T10:47:06.481Z,303.80
2022-10-29T10:48:05.909Z,304.04
2022-10-29T10:49:05.789Z,303.43
2022-10-29T10:50:05.771Z,303.54
2022-10-29T10:51:05.759Z,303.25
2022-10-29T10:52:05.743Z,303.81
2022-10-29T10:53:05.745Z,303.43
2022-10-29T10:54:05.746Z,303.57
2022-10-29T10:55:05.714Z,303.76
2022-10-29T10:56:05.702Z,303.98
2022-10-29T10:57:05.708Z,303.91
2022-10-29T10:58:05.672Z,304.39
2022-10-29T10:59:05.686Z,303.70
2022-10-29T11:00:05.657Z,303.58
2022-10-29T11:01:05.730Z,303.67
2022-10-29T11:02:05.710Z,305.13
2022-10-29T11:03:05.629Z,304.77
2022-10-29T11:04:05.625Z,304.43
2022-10-29T11:05:07.945Z,304.23
2022-10-29T11:06:05.615Z,304.13
2022-10-29T11:07:05.589Z,304.31
2022-10-29T11:08:05.573Z,304.20
2022-10-29T11:09:05.576Z,303.75
2022-10-29T11:10:05.557Z,304.19
2022-10-29T11:11:05.552Z,303.69
2022-10-29T11:12:05.525Z,304.27
2022-10-29T11:13:05.515Z,303.62
2022-10-29T11:14:05.504Z,303.31
2022-10-29T11:15:05.498Z,303.71
2022-10-29T11:16:05.495Z,304.65
2022-10-29T11:17:05.485Z,304.22
2022-10-29T11:18:05.531Z,304.07
2022-10-29T11:19:05.449Z,304.01
2022-10-29T11:20:05.430Z,303.90
2022-10-29T11:21:05.439Z,304.35
2022-10-29T11:22:05.415Z,304.11
2022-10-29T11:23:05.404Z,303.79
2022-10-29T11:24:05.405Z,303.31
2022-10-29T11:25:05.394Z,303.82
2022-10-29T11:26:05.390Z,303.64
2022-10-29T11:27:05.361Z,303.35
2022-10-29T11:28:05.359Z,303.09
2022-10-29T11:29:05.367Z,302.84
2022-10-29T11:30:05.340Z,302.41
2022-10-29T11:31:05.322Z,303.52
2022-10-29T11:32:05.331Z,303.72
2022-10-29T11:33:05.340Z,303.18
2022-10-29T11:34:05.288Z,302.92
2022-10-29T11:35:05.287Z,302.72
2022-10-29T11:36:05.261Z,303.07
2022-10-29T11:37:05.268Z,302.99
2022-10-29T11:38:05.267Z,302.91
2022-10-29T11:39:05.230Z,303.07
2022-10-29T11:40:05.261Z,303.17
2022-10-29T11:41:05.222Z,303.03
2022-10-29T11:42:05.218Z,302.68
2022-10-29T11:43:08.523Z,302.65
2022-10-29T11:44:05.167Z,303.02
2022-10-29T11:45:05.169Z,302.87
2022-10-29T11:46:05.151Z,303.17
2022-10-29T11:47:05.161Z,303.50
2022-10-29T11:48:05.187Z,302.83
2022-10-29T11:49:05.142Z,302.71
2022-10-29T11:50:05.115Z,302.80
2022-10-29T11:51:05.100Z,302.43
2022-10-29T11:52:05.110Z,303.05
2022-10-29T11:53:05.077Z,302.87
2022-10-29T11:54:05.063Z,302.42
2022-10-29T11:55:05.056Z,302.74
2022-10-29T11:56:05.045Z,302.47
2022-10-29T11:57:05.039Z,302.61
2022-10-29T11:58:05.046Z,302.95
2022-10-29T11:59:05.006Z,302.63
2022-10-29T12:00:04.990Z,302.09
2022-10-29T12:01:04.993Z,303.50
2022-10-29T12:02:05.056Z,303.30
2022-10-29T12:03:04.988Z,302.62
2022-10-29T12:04:04.995Z,303.22
2022-10-29T12:05:04.980Z,302.67
2022-10-29T12:06:04.927Z,303.12
2022-10-29T12:07:04.927Z,303.13
2022-10-29T12:08:04.921Z,302.52
2022-10-29T12:09:04.893Z,302.82
2022-10-29T12:10:04.878Z,302.89
2022-10-29T12:11:04.871Z,303.02
2022-10-29T12:12:04.862Z,303.27
2022-10-29T12:13:04.852Z,302.73
2022-10-29T12:14:04.854Z,303.66
2022-10-29T12:15:04.826Z,303.15
2022-10-29T12:16:04.823Z,303.73
2022-10-29T12:17:04.818Z,303.46
2022-10-29T12:18:04.828Z,303.11
2022-10-29T12:19:04.796Z,303.46
2022-10-29T12:21:04.758Z,303.47
2022-10-29T12:22:04.768Z,303.86
2022-10-29T12:23:08.003Z,303.06
2022-10-29T12:24:05.725Z,302.86
2022-10-29T12:25:04.727Z,303.08
2022-10-29T12:26:04.739Z,303.44
2022-10-29T12:27:04.698Z,303.77
2022-10-29T12:28:04.685Z,303.17
2022-10-29T12:29:04.681Z,302.93
2022-10-29T12:30:04.660Z,303.36
2022-10-29T12:31:04.648Z,304.07
2022-10-29T12:32:04.650Z,303.57
2022-10-29T12:33:05.439Z,302.64
2022-10-29T12:34:04.620Z,303.72
2022-10-29T12:35:04.674Z,303.07
2022-10-29T12:36:04.599Z,303.45
2022-10-29T12:37:04.582Z,303.50
2022-10-29T12:38:04.585Z,302.89